createdAt,value
2023-04-12T00:09:45.515Z,-1.17
2023-04-12T00:14:47.582Z,-1.18
2023-04-12T00:19:50.096Z,-1.15
2023-04-12T00:24:51.991Z,-1.16
2023-04-12T00:29:53.600Z,-1.18
2023-04-12T00:34:55.451Z,-1.08
2023-04-12T00:39:57.116Z,-1.16
2023-04-12T00:44:59.745Z,-1.27
2023-04-12T00:50:02.185Z,-1.24
2023-04-12T00:55:04.862Z,-1.29
2023-04-12T01:00:13.223Z,-1.34
2023-04-12T01:05:22.162Z,-1.35
2023-04-12T01:10:40.508Z,-1.41
2023-04-12T01:15:51.773Z,-1.48
2023-04-12T01:21:05.520Z,-1.60
2023-04-12T01:26:26.659Z,-1.69
2023-04-12T01:31:29.964Z,-1.73
2023-04-12T01:36:32.680Z,-1.81
2023-04-12T01:41:42.195Z,-1.75
2023-04-12T01:46:48.417Z,-1.60
2023-04-12T01:51:58.444Z,-1.43
2023-04-12T01:57:03.020Z,-1.47
2023-04-12T02:02:05.573Z,-1.54
2023-04-12T02:07:11.496Z,-1.51
2023-04-12T02:12:13.444Z,-1.58
2023-04-12T02:17:15.277Z,-1.73
2023-04-12T02:22:17.311Z,-1.78
2023-04-12T02:27:19.134Z,-1.82
2023-04-12T02:32:21.201Z,-1.82
2023-04-12T02:37:24.601Z,-1.83
2023-04-12T02:42:26.402Z,-1.86
2023-04-12T02:47:30.160Z,-1.91
2023-04-12T02:52:34.956Z,-1.88
2023-04-12T02:57:45.931Z,-1.85
2023-04-12T03:02:51.572Z,-1.94
2023-04-12T03:07:58.646Z,-1.93
2023-04-12T03:13:11.236Z,-1.93
2023-04-12T03:18:17.316Z,-1.92
2023-04-12T03:23:22.911Z,-1.89
2023-04-12T03:28:34.619Z,-1.93
2023-04-12T03:33:39.745Z,-1.89
2023-04-12T03:38:46.205Z,-1.86
2023-04-12T03:43:48.016Z,-1.88
2023-04-12T03:48:52.706Z,-1.89
2023-04-12T03:53:57.424Z,-1.90
2023-04-12T03:58:59.845Z,-1.94
2023-04-12T04:04:03.132Z,-1.91
2023-04-12T04:09:07.046Z,-1.81
2023-04-12T04:14:10.752Z,-1.72
2023-04-12T04:19:13.130Z,-1.56
2023-04-12T04:24:19.084Z,-1.59
2023-04-12T04:29:25.766Z,-1.65
2023-04-12T04:34:28.649Z,-1.61
2023-04-12T04:39:40.790Z,-1.44
2023-04-12T04:44:44.677Z,-1.16
2023-04-12T04:49:48.105Z,-0.86
2023-04-12T04:54:57.995Z,-0.64
2023-04-12T05:00:11.153Z,-0.30
2023-04-12T05:05:15.959Z,0.04
2023-04-12T05:10:19.352Z,0.23
2023-04-12T05:15:21.349Z,0.51
2023-04-12T05:20:23.360Z,0.85
2023-04-12T05:25:27.088Z,1.22
2023-04-12T05:30:40.122Z,1.48
2023-04-12T05:35:44.978Z,1.77
2023-04-12T05:40:49.966Z,1.97
2023-04-12T05:45:56.809Z,2.25
2023-04-12T05:50:58.910Z,2.42
2023-04-12T05:56:01.248Z,2.50
2023-04-12T06:01:05.324Z,2.64
2023-04-12T06:06:07.996Z,2.77
2023-04-12T06:11:12.167Z,3.07
2023-04-12T06:16:16.107Z,3.34
2023-04-12T06:21:19.119Z,3.49
2023-04-12T06:26:21.152Z,3.74
2023-04-12T06:31:23.274Z,4.09
2023-04-12T06:36:25.817Z,4.48
2023-04-12T06:41:27.636Z,4.73
2023-04-12T06:46:35.307Z,4.92
2023-04-12T06:51:39.412Z,5.13
2023-04-12T06:56:41.319Z,5.20
2023-04-12T07:01:43.634Z,5.30
2023-04-12T07:06:45.952Z,5.35
2023-04-12T07:11:48.562Z,5.59
2023-04-12T07:16:50.420Z,6.04
2023-04-12T07:21:52.517Z,6.39
2023-04-12T07:26:58.549Z,6.89
2023-04-12T07:32:01.105Z,7.51
2023-04-12T07:37:03.116Z,7.94
2023-04-12T07:42:05.050Z,8.40
2023-04-12T07:47:07.515Z,8.66
2023-04-12T07:52:09.436Z,9.13
2023-04-12T07:57:11.382Z,9.31
2023-04-12T08:02:13.404Z,9.67
2023-04-12T08:07:16.142Z,9.95
2023-04-12T08:12:18.094Z,10.35
2023-04-12T08:17:20.050Z,10.51
2023-04-12T08:22:22.137Z,10.46
2023-04-12T08:27:24.260Z,10.72
2023-04-12T08:32:26.272Z,10.93
2023-04-12T08:37:28.121Z,11.26
2023-04-12T08:42:31.807Z,11.47
2023-04-12T08:47:39.359Z,11.48
2023-04-12T08:52:42.923Z,11.82
2023-04-12T08:57:45.430Z,11.96
2023-04-12T09:02:49.082Z,11.76
2023-04-12T09:07:51.068Z,11.86
2023-04-12T09:12:52.940Z,11.55
2023-04-12T09:18:06.978Z,11.96
2023-04-12T09:23:22.450Z,11.98
2023-04-12T09:28:29.972Z,12.01
2023-04-12T09:33:42.195Z,12.43
2023-04-12T09:39:05.338Z,12.29
2023-04-12T09:44:07.184Z,11.99
2023-04-12T09:49:09.133Z,12.30
2023-04-12T09:54:11.234Z,12.91
2023-04-12T09:59:14.473Z,13.06
2023-04-12T10:04:17.450Z,13.20
2023-04-12T10:09:19.599Z,13.40
2023-04-12T10:14:21.851Z,13.77
2023-04-12T10:19:29.229Z,13.73
2023-04-12T10:24:32.193Z,13.60
2023-04-12T10:29:37.101Z,14.21
2023-04-12T10:34:42.802Z,14.61
2023-04-12T10:39:52.309Z,14.49
2023-04-12T10:45:20.123Z,14.25
2023-04-12T10:50:33.948Z,14.56
2023-04-12T10:55:38.595Z,14.75
2023-04-12T11:00:56.512Z,13.93
2023-04-12T11:06:12.761Z,14.73
2023-04-12T11:12:12.324Z,14.61
2023-04-12T11:17:17.290Z,15.29
2023-04-12T11:22:21.594Z,15.19
2023-04-12T11:27:25.471Z,15.51
2023-04-12T11:32:30.010Z,15.86
2023-04-12T11:37:32.067Z,15.25
2023-04-12T11:42:34.984Z,15.55
2023-04-12T11:47:43.177Z,16.02
2023-04-12T11:52:47.601Z,15.54
2023-04-12T11:57:56.036Z,15.93
2023-04-12T12:08:08.009Z,14.39
2023-04-12T12:13:14.182Z,13.51
2023-04-12T12:18:16.109Z,13.41
2023-04-12T12:23:33.869Z,12.40
2023-04-12T12:28:39.942Z,11.65
2023-04-12T12:33:47.134Z,11.32
2023-04-12T12:39:10.519Z,10.58
2023-04-12T12:44:12.795Z,10.28
2023-04-12T12:49:14.716Z,10.10
2023-04-12T12:54:31.788Z,9.99
2023-04-12T12:59:39.709Z,10.05
2023-04-12T13:04:41.926Z,9.93
2023-04-12T13:09:46.207Z,9.91
2023-04-12T13:14:48.660Z,9.71
2023-04-12T13:19:51.900Z,9.98
2023-04-12T13:24:55.180Z,10.44
2023-04-12T13:29:57.012Z,10.37
2023-04-12T13:34:58.853Z,10.01
2023-04-12T13:40:00.980Z,9.31
2023-04-12T13:45:04.122Z,9.08
2023-04-12T13:50:06.867Z,8.86
2023-04-12T13:55:09.294Z,8.87
2023-04-12T14:00:11.599Z,8.80
2023-04-12T14:05:13.490Z,8.48
2023-04-12T14:10:18.343Z,8.65
2023-04-12T14:15:20.240Z,8.96
2023-04-12T14:20:23.880Z,9.00
2023-04-12T14:25:25.722Z,8.93
2023-04-12T14:30:27.530Z,8.63
2023-04-12T14:35:29.321Z,8.64
2023-04-12T14:40:31.313Z,8.90
2023-04-12T14:45:33.370Z,8.98
2023-04-12T14:50:35.147Z,8.99
2023-04-12T14:55:37.069Z,8.94
2023-04-12T15:00:40.132Z,8.84
2023-04-12T15:05:42.021Z,8.89
2023-04-12T15:10:44.744Z,8.84
2023-04-12T15:15:47.558Z,8.62
2023-04-12T15:20:49.428Z,8.70
2023-04-12T15:26:02.576Z,8.62
2023-04-12T15:31:04.786Z,8.79
2023-04-12T15:36:08.163Z,9.12
2023-04-12T15:41:10.627Z,9.12
2023-04-12T15:46:14.175Z,9.13
2023-04-12T15:51:16.565Z,9.17
2023-04-12T15:56:24.038Z,9.39
2023-04-12T16:01:25.908Z,9.49
2023-04-12T16:06:28.354Z,9.63
2023-04-12T16:11:30.173Z,9.69
2023-04-12T16:16:32.701Z,9.79
2023-04-12T16:21:34.519Z,9.72
2023-04-12T16:26:36.471Z,9.83
2023-04-12T16:31:38.989Z,10.16
2023-04-12T16:36:43.073Z,9.98
2023-04-12T16:41:46.997Z,9.70
2023-04-12T16:46:48.954Z,9.88
2023-04-12T16:51:50.923Z,9.95
2023-04-12T16:56:52.901Z,10.09
2023-04-12T17:01:54.818Z,9.83
2023-04-12T17:06:56.918Z,9.71
2023-04-12T17:11:59.172Z,9.69
2023-04-12T17:17:02.025Z,9.67
2023-04-12T17:22:04.755Z,9.78
2023-04-12T17:27:06.561Z,9.96
2023-04-12T17:32:09.258Z,9.66
2023-04-12T17:37:11.061Z,9.33
2023-04-12T17:42:13.015Z,9.18
2023-04-12T17:47:15.480Z,9.06
2023-04-12T17:52:17.488Z,8.73
2023-04-12T17:57:19.341Z,8.85
2023-04-12T18:02:21.520Z,8.63
2023-04-12T18:07:23.684Z,8.61
2023-04-12T18:12:25.546Z,8.38
2023-04-12T18:17:27.707Z,8.50
2023-04-12T18:22:29.722Z,8.68
2023-04-12T18:27:32.165Z,8.87
2023-04-12T18:32:34.162Z,8.97
2023-04-12T18:37:37.051Z,8.98
2023-04-12T18:42:38.910Z,9.10
2023-04-12T18:47:40.916Z,9.13
2023-04-12T18:52:42.786Z,9.07
2023-04-12T18:57:45.999Z,9.10
2023-04-12T19:02:49.073Z,9.02
2023-04-12T19:07:51.987Z,8.94
2023-04-12T19:12:54.383Z,8.97
2023-04-12T19:17:56.459Z,9.18
2023-04-12T19:22:58.489Z,9.21
2023-04-12T19:28:00.199Z,9.56
2023-04-12T19:33:01.859Z,9.39
2023-04-12T19:38:04.725Z,9.09
2023-04-12T19:43:08.894Z,8.75
2023-04-12T19:48:13.216Z,8.41
2023-04-12T19:53:19.961Z,8.47
2023-04-12T19:58:23.542Z,8.52
2023-04-12T20:03:25.467Z,8.57
2023-04-12T20:08:31.255Z,8.94
2023-04-12T20:13:34.187Z,9.16
2023-04-12T20:18:35.906Z,9.17
2023-04-12T20:23:37.655Z,9.17
2023-04-12T20:28:39.345Z,9.25
2023-04-12T20:33:42.185Z,9.41
2023-04-12T20:38:44.135Z,9.51
2023-04-12T20:43:47.850Z,9.62
2023-04-12T20:48:50.333Z,9.66
2023-04-12T20:53:52.016Z,9.59
2023-04-12T20:58:53.986Z,9.50
2023-04-12T21:03:58.688Z,9.34
2023-04-12T21:09:01.883Z,9.29
2023-04-12T21:14:04.050Z,9.25
2023-04-12T21:19:06.160Z,9.19
2023-04-12T21:24:07.861Z,9.21
2023-04-12T21:29:10.496Z,9.26
2023-04-12T21:34:12.359Z,9.05
2023-04-12T21:39:14.052Z,9.08
2023-04-12T21:44:15.831Z,9.04
2023-04-12T21:49:17.841Z,8.99
2023-04-12T21:54:21.613Z,8.99
2023-04-12T21:59:25.411Z,8.93
2023-04-12T22:04:27.169Z,8.82
2023-04-12T22:09:29.860Z,8.69
2023-04-12T22:14:31.762Z,8.65
2023-04-12T22:19:33.435Z,8.66
2023-04-12T22:24:36.835Z,8.62
2023-04-12T22:29:38.474Z,8.66
2023-04-12T22:34:40.128Z,8.64
2023-04-12T22:39:42.765Z,8.62
2023-04-12T22:44:44.378Z,8.67
2023-04-12T22:49:50.533Z,8.68
2023-04-12T22:54:52.240Z,8.68
2023-04-12T22:59:54.000Z,8.59
2023-04-12T23:04:55.651Z,8.41
2023-04-12T23:09:57.697Z,8.46
2023-04-12T23:14:59.315Z,8.49
2023-04-12T23:20:01.972Z,8.53
2023-04-12T23:25:05.083Z,8.55
2023-04-12T23:30:07.354Z,8.54
2023-04-12T23:35:09.218Z,8.51
2023-04-12T23:40:14.623Z,8.48
2023-04-12T23:45:17.050Z,8.49
2023-04-12T23:50:19.294Z,8.51
2023-04-12T23:55:21.037Z,8.40
